Green Cove Springs, Florida
Current Conditions -  °F | °C
As of 7:53 AM on Wednesday 26 Nov 2014 (Local Time) from KNIP Reporting Station
Moderate Rain Moderate Rain  
Wind Chill: 53°   Ceiling: 5500
Heat Index: 53°   Visibility: 2.5mi
Dew Point: 48°   Wind: 7mph
Humidity: 83%   Direction: 340°NNW
Pressure: 30.03"   Gusts: NA
Location:  29.99°N, 81.68°W
Report Text: KNIP 261253Z 34006KT 2 1/2SM RA SCT009 BKN055 OVC070 12/09 A3003 RMK AO2 SFC VIS 5 SLP164 P0009 T01170089 $
Loading
Personal Weather Stations






























Interactive Weather Map New forecast layout! Learn more

10-Day Weather Forecast

Advertisements
Track Severe Weather on mobile